createdAt,value
2022-10-09T00:01:35.249Z,10.70
2022-10-09T00:06:42.964Z,11.00
2022-10-09T00:11:50.330Z,9.30
2022-10-09T00:16:59.829Z,9.30
2022-10-09T00:22:07.236Z,8.00
2022-10-09T00:27:14.454Z,9.40
2022-10-09T00:32:21.563Z,7.40
2022-10-09T00:37:29.594Z,5.60
2022-10-09T00:42:36.854Z,5.90
2022-10-09T00:47:48.091Z,6.80
2022-10-09T00:53:00.029Z,6.00
2022-10-09T00:58:08.417Z,5.00
2022-10-09T01:03:15.601Z,6.20
2022-10-09T01:08:31.093Z,4.80
2022-10-09T01:13:46.816Z,3.60
2022-10-09T01:19:00.332Z,3.10
2022-10-09T01:24:18.929Z,3.50
2022-10-09T01:29:29.966Z,3.80
2022-10-09T01:34:38.550Z,3.70
2022-10-09T01:39:50.394Z,3.30
2022-10-09T01:44:57.593Z,3.50
2022-10-09T01:50:15.213Z,2.70
2022-10-09T01:55:43.828Z,2.90
2022-10-09T02:00:58.114Z,2.80
2022-10-09T02:06:08.303Z,2.90
2022-10-09T02:11:16.471Z,2.70
2022-10-09T02:16:37.763Z,2.70
2022-10-09T02:21:53.653Z,2.50
2022-10-09T02:27:03.717Z,2.90
2022-10-09T02:32:11.596Z,2.40
2022-10-09T02:37:22.227Z,3.00
2022-10-09T02:42:29.586Z,3.30
2022-10-09T02:47:36.870Z,2.10
2022-10-09T02:52:43.817Z,2.00
2022-10-09T02:57:51.166Z,3.30
2022-10-09T03:02:58.442Z,2.90
2022-10-09T03:08:06.020Z,2.70
2022-10-09T03:13:14.176Z,3.10
2022-10-09T03:18:22.450Z,4.00
2022-10-09T03:23:30.266Z,3.80
2022-10-09T03:28:40.702Z,3.60
2022-10-09T03:33:48.514Z,3.30
2022-10-09T03:38:55.863Z,4.10
2022-10-09T03:44:03.856Z,3.50
2022-10-09T03:49:11.011Z,4.10
2022-10-09T03:54:19.031Z,3.90
2022-10-09T03:59:26.194Z,4.10
2022-10-09T04:04:33.901Z,3.20
2022-10-09T04:09:42.015Z,3.70
2022-10-09T04:14:49.183Z,3.40
2022-10-09T04:19:56.582Z,4.60
2022-10-09T04:25:04.753Z,3.50
2022-10-09T04:30:14.423Z,3.90
2022-10-09T04:35:24.894Z,3.30
2022-10-09T04:40:32.841Z,3.50
2022-10-09T04:45:43.867Z,4.60
2022-10-09T04:50:51.217Z,3.60
2022-10-09T04:55:58.637Z,3.90
2022-10-09T05:01:09.327Z,4.10
2022-10-09T05:06:17.973Z,4.80
2022-10-09T05:11:27.015Z,5.40
2022-10-09T05:16:49.374Z,4.00
2022-10-09T05:22:01.794Z,4.00
2022-10-09T05:27:09.573Z,4.30
2022-10-09T05:32:17.036Z,3.60
2022-10-09T05:37:24.187Z,3.70
2022-10-09T05:42:31.505Z,3.90
2022-10-09T05:47:38.599Z,3.70
2022-10-09T05:52:45.849Z,3.20
2022-10-09T05:57:53.773Z,4.00
2022-10-09T06:03:00.941Z,4.40
2022-10-09T06:08:08.056Z,4.60
2022-10-09T06:13:15.354Z,3.80
2022-10-09T06:18:22.920Z,3.70
2022-10-09T06:23:31.720Z,3.60
2022-10-09T06:28:40.211Z,3.40
2022-10-09T06:33:50.485Z,3.00
2022-10-09T06:39:02.227Z,3.00
2022-10-09T06:44:16.509Z,3.10
2022-10-09T06:49:24.207Z,3.90
2022-10-09T06:54:31.986Z,3.50
2022-10-09T06:59:39.114Z,2.90
2022-10-09T07:04:48.126Z,3.10
2022-10-09T07:09:55.643Z,3.50
2022-10-09T07:15:02.712Z,3.10
2022-10-09T07:25:19.287Z,3.80
2022-10-09T07:30:27.012Z,3.60
2022-10-09T07:35:35.206Z,3.90
2022-10-09T07:40:42.881Z,4.10
2022-10-09T07:45:53.260Z,3.60
2022-10-09T07:51:11.056Z,4.60
2022-10-09T07:56:19.809Z,4.60
2022-10-09T08:01:29.066Z,4.70
2022-10-09T08:06:36.714Z,5.20
2022-10-09T08:11:44.676Z,6.70
2022-10-09T08:16:52.097Z,5.90
2022-10-09T08:22:03.388Z,6.90
2022-10-09T08:27:10.915Z,6.60
2022-10-09T08:32:18.215Z,5.60
2022-10-09T08:37:25.301Z,6.10
2022-10-09T08:42:40.018Z,6.50
2022-10-09T08:47:52.130Z,5.30
2022-10-09T08:53:06.626Z,5.80
2022-10-09T08:58:18.698Z,5.90
2022-10-09T09:03:43.097Z,5.30
2022-10-09T09:08:56.621Z,4.30
2022-10-09T09:14:22.594Z,5.00
2022-10-09T09:19:47.456Z,5.10
2022-10-09T09:24:57.379Z,4.70
2022-10-09T09:30:16.770Z,4.40
2022-10-09T09:35:30.206Z,4.60
2022-10-09T09:40:38.851Z,3.90
2022-10-09T09:45:48.442Z,3.10
2022-10-09T09:51:16.114Z,3.00
2022-10-09T09:57:10.348Z,3.40
2022-10-09T10:02:16.266Z,2.30
2022-10-09T10:07:42.972Z,1.80
2022-10-09T10:12:55.604Z,2.20
2022-10-09T10:18:06.105Z,1.80
2022-10-09T10:23:33.617Z,1.80
2022-10-09T10:33:57.837Z,2.00
2022-10-09T10:39:10.987Z,1.60
2022-10-09T10:44:24.256Z,2.00
2022-10-09T10:49:34.008Z,1.70
2022-10-09T10:54:44.694Z,2.30
2022-10-09T11:00:06.467Z,1.80
2022-10-09T11:05:33.130Z,1.90
2022-10-09T11:10:50.823Z,1.80
2022-10-09T11:16:08.173Z,2.20
2022-10-09T11:21:27.237Z,1.60
2022-10-09T11:26:42.881Z,1.30
2022-10-09T11:31:55.935Z,1.60
2022-10-09T11:37:08.302Z,1.80
2022-10-09T11:42:20.287Z,1.50
2022-10-09T11:47:33.139Z,1.30
2022-10-09T11:52:51.254Z,2.00
2022-10-09T11:58:08.586Z,1.70
2022-10-09T12:03:35.737Z,1.80
2022-10-09T12:08:56.050Z,1.70
2022-10-09T12:14:05.504Z,1.50
2022-10-09T12:19:23.528Z,1.50
2022-10-09T12:24:34.155Z,1.20
2022-10-09T12:29:48.757Z,1.50
2022-10-09T12:34:59.620Z,1.30
2022-10-09T12:40:19.036Z,1.40
2022-10-09T12:45:30.324Z,1.50
2022-10-09T12:50:37.806Z,1.60
2022-10-09T12:55:47.066Z,1.80
2022-10-09T13:00:59.447Z,1.60
2022-10-09T13:06:09.693Z,1.90
2022-10-09T13:11:26.165Z,1.80
2022-10-09T13:16:44.728Z,1.60
2022-10-09T13:22:10.699Z,3.30
2022-10-09T13:27:19.707Z,1.80
2022-10-09T13:32:27.651Z,1.70
2022-10-09T13:37:35.058Z,1.60
2022-10-09T13:42:43.776Z,1.90
2022-10-09T13:47:52.066Z,2.20
2022-10-09T13:53:00.534Z,2.10
2022-10-09T13:58:07.638Z,1.90
2022-10-09T14:03:14.772Z,1.90
2022-10-09T14:08:21.725Z,1.90
2022-10-09T14:13:29.912Z,2.00
2022-10-09T14:18:37.506Z,1.90
2022-10-09T14:23:44.829Z,2.00
2022-10-09T14:28:51.993Z,2.00
2022-10-09T14:34:01.061Z,1.70
2022-10-09T14:39:08.434Z,1.70
2022-10-09T14:44:16.007Z,1.50
2022-10-09T14:49:23.439Z,1.80
2022-10-09T14:54:30.434Z,1.50
2022-10-09T14:59:37.873Z,1.70
2022-10-09T15:04:45.616Z,1.70
2022-10-09T15:09:52.824Z,1.50
2022-10-09T15:15:00.889Z,1.70
2022-10-09T15:20:10.501Z,1.90
2022-10-09T15:25:18.584Z,2.10
2022-10-09T15:30:27.825Z,2.00
2022-10-09T15:35:35.677Z,2.40
2022-10-09T15:40:47.309Z,2.20
2022-10-09T15:46:01.859Z,1.80
2022-10-09T15:51:13.676Z,2.30
2022-10-09T15:56:22.782Z,2.30
2022-10-09T16:01:30.338Z,2.60
2022-10-09T16:06:38.054Z,2.60
2022-10-09T16:11:45.051Z,2.40
2022-10-09T16:16:51.964Z,2.00
2022-10-09T16:21:58.948Z,2.40
2022-10-09T16:27:06.206Z,3.20
2022-10-09T16:32:13.737Z,2.80
2022-10-09T16:37:20.862Z,2.60
2022-10-09T16:42:27.935Z,2.70
2022-10-09T16:47:35.221Z,2.50
2022-10-09T16:52:42.503Z,2.60
2022-10-09T16:57:50.013Z,2.30
2022-10-09T17:02:58.258Z,3.10
2022-10-09T17:08:05.497Z,2.90
2022-10-09T17:13:12.743Z,3.10
2022-10-09T17:18:21.291Z,3.40
2022-10-09T17:23:28.323Z,3.80
2022-10-09T17:28:37.175Z,3.20
2022-10-09T17:33:48.536Z,4.00
2022-10-09T17:38:56.342Z,3.60
2022-10-09T17:44:03.873Z,3.30
2022-10-09T17:49:10.946Z,4.60
2022-10-09T17:54:18.769Z,4.40
2022-10-09T17:59:25.917Z,4.50
2022-10-09T18:04:33.121Z,4.30
2022-10-09T18:09:40.790Z,4.70
2022-10-09T18:14:48.304Z,4.50
2022-10-09T18:19:55.326Z,4.80
2022-10-09T18:30:09.813Z,5.70
2022-10-09T18:35:16.886Z,5.90
2022-10-09T18:45:32.998Z,5.70
2022-10-09T18:50:40.814Z,5.00
2022-10-09T19:00:56.891Z,6.90
2022-10-09T19:06:04.437Z,6.40
2022-10-09T19:16:17.324Z,6.20
2022-10-09T19:26:29.795Z,6.20
2022-10-09T19:36:43.572Z,7.00
2022-10-09T19:41:51.597Z,7.70
2022-10-09T19:46:58.878Z,8.00
2022-10-09T19:52:06.358Z,9.50
2022-10-09T19:57:13.511Z,7.20
2022-10-09T20:02:20.626Z,7.70
2022-10-09T20:07:27.794Z,8.10
2022-10-09T20:12:35.660Z,7.60
2022-10-09T20:17:42.587Z,8.00
2022-10-09T20:22:49.871Z,8.20
2022-10-09T20:27:57.193Z,7.30
2022-10-09T20:33:05.557Z,8.00
2022-10-09T20:38:13.443Z,8.90
2022-10-09T20:43:20.757Z,7.80
2022-10-09T20:48:27.922Z,8.70
2022-10-09T21:03:49.556Z,8.90
2022-10-09T21:08:57.521Z,8.90
2022-10-09T21:14:05.808Z,9.80
2022-10-09T21:19:14.619Z,9.30
2022-10-09T21:24:21.593Z,9.70
2022-10-09T21:29:28.814Z,9.10
2022-10-09T21:39:41.614Z,8.80
2022-10-09T21:44:48.759Z,10.20
2022-10-09T21:49:55.825Z,10.90
2022-10-09T22:00:10.534Z,9.70
2022-10-09T22:05:17.533Z,9.90
2022-10-09T22:10:25.011Z,10.30
2022-10-09T22:15:32.056Z,10.40
2022-10-09T22:20:43.596Z,9.80
2022-10-09T22:26:00.946Z,11.50
2022-10-09T22:31:10.530Z,10.30
2022-10-09T22:36:19.207Z,11.50
2022-10-09T22:41:27.031Z,9.70
2022-10-09T22:46:36.117Z,11.70
2022-10-09T22:51:43.832Z,11.00
2022-10-09T22:56:51.749Z,9.70
2022-10-09T23:02:00.815Z,12.10
2022-10-09T23:07:08.205Z,10.10
2022-10-09T23:12:15.167Z,12.50
2022-10-09T23:17:22.360Z,12.10
2022-10-09T23:27:34.762Z,11.60
2022-10-09T23:32:41.841Z,13.10
2022-10-09T23:37:48.963Z,12.20
2022-10-09T23:48:01.490Z,11.30
2022-10-09T23:53:08.795Z,12.30
2022-10-09T23:58:20.688Z,10.80
